sensor_id;sensor_type;location;lat;lon;timestamp;P1;durP1;ratioP1;P2;durP2;ratioP2
62796;SDS011;48839;48.546;-4.178;2023-06-10T00:02:07;25.10;;;15.70;;
62796;SDS011;48839;48.546;-4.178;2023-06-10T00:04:33;26.20;;;15.65;;
62796;SDS011;48839;48.546;-4.178;2023-06-10T00:07:01;28.42;;;16.10;;
62796;SDS011;48839;48.546;-4.178;2023-06-10T00:09:27;25.02;;;15.35;;
62796;SDS011;48839;48.546;-4.178;2023-06-10T00:11:54;26.65;;;15.57;;
62796;SDS011;48839;48.546;-4.178;2023-06-10T00:14:20;24.98;;;15.27;;
62796;SDS011;48839;48.546;-4.178;2023-06-10T00:16:46;29.38;;;15.35;;
62796;SDS011;48839;48.546;-4.178;2023-06-10T00:19:12;28.65;;;15.68;;
62796;SDS011;48839;48.546;-4.178;2023-06-10T00:21:39;26.50;;;15.27;;
62796;SDS011;48839;48.546;-4.178;2023-06-10T00:24:08;23.27;;;16.23;;
62796;SDS011;48839;48.546;-4.178;2023-06-10T00:29:05;23.95;;;14.25;;
62796;SDS011;48839;48.546;-4.178;2023-06-10T00:31:31;24.95;;;14.90;;
62796;SDS011;48839;48.546;-4.178;2023-06-10T00:33:57;26.23;;;15.77;;
62796;SDS011;48839;48.546;-4.178;2023-06-10T00:36:23;31.33;;;16.95;;
62796;SDS011;48839;48.546;-4.178;2023-06-10T00:38:49;23.98;;;15.77;;
62796;SDS011;48839;48.546;-4.178;2023-06-10T00:41:15;25.55;;;15.63;;
62796;SDS011;48839;48.546;-4.178;2023-06-10T00:43:42;26.20;;;16.27;;
62796;SDS011;48839;48.546;-4.178;2023-06-10T00:46:08;24.83;;;15.15;;
62796;SDS011;48839;48.546;-4.178;2023-06-10T00:48:34;28.63;;;15.77;;
62796;SDS011;48839;48.546;-4.178;2023-06-10T00:51:00;27.23;;;15.80;;
62796;SDS011;48839;48.546;-4.178;2023-06-10T00:53:26;25.98;;;15.95;;
62796;SDS011;48839;48.546;-4.178;2023-06-10T00:55:53;24.52;;;15.60;;
62796;SDS011;48839;48.546;-4.178;2023-06-10T00:58:19;24.95;;;15.20;;
62796;SDS011;48839;48.546;-4.178;2023-06-10T01:00:45;25.33;;;15.48;;
62796;SDS011;48839;48.546;-4.178;2023-06-10T01:03:11;30.33;;;15.07;;
62796;SDS011;48839;48.546;-4.178;2023-06-10T01:05:38;25.45;;;15.40;;
62796;SDS011;48839;48.546;-4.178;2023-06-10T01:08:27;26.15;;;15.60;;
62796;SDS011;48839;48.546;-4.178;2023-06-10T01:10:57;29.45;;;15.75;;
62796;SDS011;48839;48.546;-4.178;2023-06-10T01:13:25;25.83;;;14.55;;
62796;SDS011;48839;48.546;-4.178;2023-06-10T01:15:54;28.15;;;15.15;;
62796;SDS011;48839;48.546;-4.178;2023-06-10T01:18:20;29.17;;;14.77;;
62796;SDS011;48839;48.546;-4.178;2023-06-10T01:20:46;32.15;;;15.02;;
62796;SDS011;48839;48.546;-4.178;2023-06-10T01:23:13;29.52;;;13.30;;
62796;SDS011;48839;48.546;-4.178;2023-06-10T01:25:40;38.13;;;14.93;;
62796;SDS011;48839;48.546;-4.178;2023-06-10T01:30:53;32.38;;;13.43;;
62796;SDS011;48839;48.546;-4.178;2023-06-10T01:33:28;26.35;;;14.45;;
62796;SDS011;48839;48.546;-4.178;2023-06-10T01:35:58;32.90;;;13.82;;
62796;SDS011;48839;48.546;-4.178;2023-06-10T01:38:25;28.88;;;13.00;;
62796;SDS011;48839;48.546;-4.178;2023-06-10T01:40:55;36.72;;;14.05;;
62796;SDS011;48839;48.546;-4.178;2023-06-10T01:43:21;24.00;;;13.23;;
62796;SDS011;48839;48.546;-4.178;2023-06-10T01:45:47;26.30;;;13.20;;
62796;SDS011;48839;48.546;-4.178;2023-06-10T01:48:13;29.35;;;13.30;;
62796;SDS011;48839;48.546;-4.178;2023-06-10T01:50:39;31.20;;;13.57;;
62796;SDS011;48839;48.546;-4.178;2023-06-10T01:53:05;29.50;;;13.43;;
62796;SDS011;48839;48.546;-4.178;2023-06-10T01:55:31;26.58;;;12.82;;
62796;SDS011;48839;48.546;-4.178;2023-06-10T01:57:57;26.75;;;13.18;;
62796;SDS011;48839;48.546;-4.178;2023-06-10T02:00:23;25.60;;;11.82;;
62796;SDS011;48839;48.546;-4.178;2023-06-10T02:02:49;28.00;;;12.82;;
62796;SDS011;48839;48.546;-4.178;2023-06-10T02:05:15;26.63;;;12.65;;
62796;SDS011;48839;48.546;-4.178;2023-06-10T02:07:41;24.40;;;12.80;;
62796;SDS011;48839;48.546;-4.178;2023-06-10T02:10:08;28.50;;;12.65;;
62796;SDS011;48839;48.546;-4.178;2023-06-10T02:12:34;24.52;;;11.43;;
62796;SDS011;48839;48.546;-4.178;2023-06-10T02:15:00;25.55;;;12.52;;
62796;SDS011;48839;48.546;-4.178;2023-06-10T02:17:26;31.10;;;12.63;;
62796;SDS011;48839;48.546;-4.178;2023-06-10T02:19:52;29.75;;;13.50;;
62796;SDS011;48839;48.546;-4.178;2023-06-10T02:22:20;31.48;;;13.32;;
62796;SDS011;48839;48.546;-4.178;2023-06-10T02:24:46;25.40;;;12.48;;
62796;SDS011;48839;48.546;-4.178;2023-06-10T02:27:12;25.48;;;12.27;;
62796;SDS011;48839;48.546;-4.178;2023-06-10T02:29:38;28.88;;;12.93;;
62796;SDS011;48839;48.546;-4.178;2023-06-10T02:32:04;27.27;;;12.95;;
62796;SDS011;48839;48.546;-4.178;2023-06-10T02:34:30;22.05;;;11.63;;
62796;SDS011;48839;48.546;-4.178;2023-06-10T02:36:56;22.05;;;11.38;;
62796;SDS011;48839;48.546;-4.178;2023-06-10T02:39:24;20.58;;;11.50;;
62796;SDS011;48839;48.546;-4.178;2023-06-10T02:41:50;24.40;;;11.27;;
62796;SDS011;48839;48.546;-4.178;2023-06-10T02:44:17;23.13;;;10.55;;
62796;SDS011;48839;48.546;-4.178;2023-06-10T02:46:44;24.10;;;11.55;;
62796;SDS011;48839;48.546;-4.178;2023-06-10T02:49:11;25.17;;;11.52;;
62796;SDS011;48839;48.546;-4.178;2023-06-10T02:51:37;21.25;;;12.00;;
62796;SDS011;48839;48.546;-4.178;2023-06-10T02:54:03;23.33;;;11.48;;
62796;SDS011;48839;48.546;-4.178;2023-06-10T02:56:29;19.17;;;11.15;;
62796;SDS011;48839;48.546;-4.178;2023-06-10T02:58:56;19.92;;;10.85;;
62796;SDS011;48839;48.546;-4.178;2023-06-10T03:01:22;21.83;;;11.38;;
62796;SDS011;48839;48.546;-4.178;2023-06-10T03:03:49;22.50;;;11.93;;
62796;SDS011;48839;48.546;-4.178;2023-06-10T03:06:15;22.17;;;11.55;;
62796;SDS011;48839;48.546;-4.178;2023-06-10T03:08:41;26.05;;;12.00;;
62796;SDS011;48839;48.546;-4.178;2023-06-10T03:11:08;25.48;;;11.38;;
62796;SDS011;48839;48.546;-4.178;2023-06-10T03:13:34;18.90;;;10.32;;
62796;SDS011;48839;48.546;-4.178;2023-06-10T03:16:00;20.40;;;10.40;;
62796;SDS011;48839;48.546;-4.178;2023-06-10T03:18:28;19.48;;;9.88;;
62796;SDS011;48839;48.546;-4.178;2023-06-10T03:20:54;20.27;;;10.45;;
62796;SDS011;48839;48.546;-4.178;2023-06-10T03:23:21;20.05;;;9.57;;
62796;SDS011;48839;48.546;-4.178;2023-06-10T03:25:48;22.90;;;9.43;;
62796;SDS011;48839;48.546;-4.178;2023-06-10T03:28:14;19.92;;;10.00;;
62796;SDS011;48839;48.546;-4.178;2023-06-10T03:30:40;19.77;;;9.88;;
62796;SDS011;48839;48.546;-4.178;2023-06-10T03:33:06;19.02;;;9.10;;
62796;SDS011;48839;48.546;-4.178;2023-06-10T03:35:32;17.80;;;9.77;;
62796;SDS011;48839;48.546;-4.178;2023-06-10T03:37:59;18.05;;;8.90;;
62796;SDS011;48839;48.546;-4.178;2023-06-10T03:40:25;17.48;;;8.80;;
62796;SDS011;48839;48.546;-4.178;2023-06-10T03:42:51;17.83;;;9.32;;
62796;SDS011;48839;48.546;-4.178;2023-06-10T03:45:17;20.15;;;8.98;;
62796;SDS011;48839;48.546;-4.178;2023-06-10T03:47:43;18.17;;;9.02;;
62796;SDS011;48839;48.546;-4.178;2023-06-10T03:50:10;16.75;;;9.23;;
62796;SDS011;48839;48.546;-4.178;2023-06-10T03:52:37;15.45;;;8.90;;
62796;SDS011;48839;48.546;-4.178;2023-06-10T03:55:04;18.30;;;9.00;;
62796;SDS011;48839;48.546;-4.178;2023-06-10T03:57:30;20.52;;;9.23;;
62796;SDS011;48839;48.546;-4.178;2023-06-10T03:59:56;20.98;;;8.98;;
62796;SDS011;48839;48.546;-4.178;2023-06-10T04:02:22;18.25;;;9.50;;
62796;SDS011;48839;48.546;-4.178;2023-06-10T04:04:48;17.38;;;8.88;;
62796;SDS011;48839;48.546;-4.178;2023-06-10T04:07:16;19.35;;;9.65;;
62796;SDS011;48839;48.546;-4.178;2023-06-10T04:09:43;15.80;;;8.52;;
62796;SDS011;48839;48.546;-4.178;2023-06-10T04:12:10;18.65;;;8.65;;
62796;SDS011;48839;48.546;-4.178;2023-06-10T04:14:36;16.60;;;8.75;;
62796;SDS011;48839;48.546;-4.178;2023-06-10T04:17:03;16.10;;;8.07;;
62796;SDS011;48839;48.546;-4.178;2023-06-10T04:19:31;16.48;;;8.45;;
62796;SDS011;48839;48.546;-4.178;2023-06-10T04:21:57;18.50;;;9.48;;
62796;SDS011;48839;48.546;-4.178;2023-06-10T04:24:23;15.43;;;8.32;;
62796;SDS011;48839;48.546;-4.178;2023-06-10T04:26:50;14.23;;;8.65;;
62796;SDS011;48839;48.546;-4.178;2023-06-10T04:29:16;14.50;;;7.45;;
62796;SDS011;48839;48.546;-4.178;2023-06-10T04:31:42;15.68;;;8.13;;
62796;SDS011;48839;48.546;-4.178;2023-06-10T04:34:08;16.48;;;8.80;;
62796;SDS011;48839;48.546;-4.178;2023-06-10T04:36:34;14.80;;;7.90;;
62796;SDS011;48839;48.546;-4.178;2023-06-10T04:39:00;18.13;;;8.55;;
62796;SDS011;48839;48.546;-4.178;2023-06-10T04:41:27;17.20;;;8.75;;
62796;SDS011;48839;48.546;-4.178;2023-06-10T04:43:53;18.48;;;8.20;;
62796;SDS011;48839;48.546;-4.178;2023-06-10T04:46:19;20.50;;;8.70;;
62796;SDS011;48839;48.546;-4.178;2023-06-10T04:48:45;14.23;;;7.78;;
62796;SDS011;48839;48.546;-4.178;2023-06-10T04:51:12;13.30;;;7.18;;
62796;SDS011;48839;48.546;-4.178;2023-06-10T04:53:38;15.68;;;8.40;;
62796;SDS011;48839;48.546;-4.178;2023-06-10T04:56:05;18.33;;;8.25;;
62796;SDS011;48839;48.546;-4.178;2023-06-10T04:58:32;16.52;;;8.68;;
62796;SDS011;48839;48.546;-4.178;2023-06-10T05:00:58;15.23;;;7.85;;
62796;SDS011;48839;48.546;-4.178;2023-06-10T05:03:25;14.30;;;7.25;;
62796;SDS011;48839;48.546;-4.178;2023-06-10T05:05:51;12.60;;;7.68;;
62796;SDS011;48839;48.546;-4.178;2023-06-10T05:08:17;12.90;;;7.70;;
62796;SDS011;48839;48.546;-4.178;2023-06-10T05:10:44;16.85;;;7.78;;
62796;SDS011;48839;48.546;-4.178;2023-06-10T05:13:10;17.60;;;8.10;;
62796;SDS011;48839;48.546;-4.178;2023-06-10T05:15:36;15.77;;;8.32;;
62796;SDS011;48839;48.546;-4.178;2023-06-10T05:18:02;19.15;;;8.38;;
62796;SDS011;48839;48.546;-4.178;2023-06-10T05:20:28;18.08;;;8.38;;
62796;SDS011;48839;48.546;-4.178;2023-06-10T05:22:54;15.48;;;7.80;;
62796;SDS011;48839;48.546;-4.178;2023-06-10T05:25:21;16.55;;;8.02;;
62796;SDS011;48839;48.546;-4.178;2023-06-10T05:27:48;16.40;;;8.25;;
62796;SDS011;48839;48.546;-4.178;2023-06-10T05:30:14;15.90;;;8.07;;
62796;SDS011;48839;48.546;-4.178;2023-06-10T05:32:43;13.70;;;6.82;;
62796;SDS011;48839;48.546;-4.178;2023-06-10T05:35:09;15.55;;;8.82;;
62796;SDS011;48839;48.546;-4.178;2023-06-10T05:37:35;17.55;;;8.48;;
62796;SDS011;48839;48.546;-4.178;2023-06-10T05:40:02;16.42;;;8.20;;
62796;SDS011;48839;48.546;-4.178;2023-06-10T05:42:29;17.60;;;7.78;;
62796;SDS011;48839;48.546;-4.178;2023-06-10T05:44:55;16.98;;;8.40;;
62796;SDS011;48839;48.546;-4.178;2023-06-10T05:47:21;15.63;;;7.78;;
62796;SDS011;48839;48.546;-4.178;2023-06-10T05:49:47;14.07;;;7.07;;
62796;SDS011;48839;48.546;-4.178;2023-06-10T05:52:15;16.50;;;8.65;;
62796;SDS011;48839;48.546;-4.178;2023-06-10T05:54:40;16.23;;;7.85;;
62796;SDS011;48839;48.546;-4.178;2023-06-10T05:57:06;15.02;;;7.28;;
62796;SDS011;48839;48.546;-4.178;2023-06-10T05:59:32;12.20;;;7.45;;
62796;SDS011;48839;48.546;-4.178;2023-06-10T06:01:58;10.07;;;5.97;;
62796;SDS011;48839;48.546;-4.178;2023-06-10T06:04:25;11.80;;;6.25;;
62796;SDS011;48839;48.546;-4.178;2023-06-10T06:06:51;11.43;;;6.38;;
62796;SDS011;48839;48.546;-4.178;2023-06-10T06:09:17;10.18;;;5.22;;
62796;SDS011;48839;48.546;-4.178;2023-06-10T06:11:43;12.20;;;5.53;;
62796;SDS011;48839;48.546;-4.178;2023-06-10T06:14:09;12.25;;;5.80;;
62796;SDS011;48839;48.546;-4.178;2023-06-10T06:16:35;10.80;;;5.97;;
62796;SDS011;48839;48.546;-4.178;2023-06-10T06:19:01;11.45;;;5.80;;
62796;SDS011;48839;48.546;-4.178;2023-06-10T06:21:27;11.38;;;6.00;;
62796;SDS011;48839;48.546;-4.178;2023-06-10T06:23:53;9.48;;;4.70;;
62796;SDS011;48839;48.546;-4.178;2023-06-10T06:26:19;7.43;;;3.90;;
62796;SDS011;48839;48.546;-4.178;2023-06-10T06:28:45;7.82;;;3.92;;
62796;SDS011;48839;48.546;-4.178;2023-06-10T06:31:11;5.63;;;3.55;;
62796;SDS011;48839;48.546;-4.178;2023-06-10T06:33:37;8.30;;;4.20;;
62796;SDS011;48839;48.546;-4.178;2023-06-10T06:36:03;10.00;;;3.88;;
62796;SDS011;48839;48.546;-4.178;2023-06-10T06:38:29;7.25;;;4.18;;
62796;SDS011;48839;48.546;-4.178;2023-06-10T06:40:56;7.22;;;3.50;;
62796;SDS011;48839;48.546;-4.178;2023-06-10T06:43:27;5.47;;;3.70;;
62796;SDS011;48839;48.546;-4.178;2023-06-10T06:45:53;7.43;;;4.05;;
62796;SDS011;48839;48.546;-4.178;2023-06-10T06:48:19;5.25;;;2.95;;
62796;SDS011;48839;48.546;-4.178;2023-06-10T06:50:45;3.63;;;2.70;;
62796;SDS011;48839;48.546;-4.178;2023-06-10T06:53:11;5.90;;;2.53;;
62796;SDS011;48839;48.546;-4.178;2023-06-10T06:55:37;4.63;;;2.53;;
62796;SDS011;48839;48.546;-4.178;2023-06-10T06:58:03;6.25;;;2.35;;
62796;SDS011;48839;48.546;-4.178;2023-06-10T07:00:30;5.70;;;2.65;;
62796;SDS011;48839;48.546;-4.178;2023-06-10T07:02:56;6.32;;;3.10;;
62796;SDS011;48839;48.546;-4.178;2023-06-10T07:05:22;4.43;;;2.78;;
62796;SDS011;48839;48.546;-4.178;2023-06-10T07:07:50;6.38;;;3.10;;
62796;SDS011;48839;48.546;-4.178;2023-06-10T07:10:19;5.35;;;2.83;;
62796;SDS011;48839;48.546;-4.178;2023-06-10T07:12:47;4.22;;;2.28;;
62796;SDS011;48839;48.546;-4.178;2023-06-10T07:15:13;3.67;;;2.60;;
62796;SDS011;48839;48.546;-4.178;2023-06-10T07:17:39;3.15;;;2.10;;
62796;SDS011;48839;48.546;-4.178;2023-06-10T07:20:05;3.17;;;2.00;;
62796;SDS011;48839;48.546;-4.178;2023-06-10T07:22:31;2.75;;;1.77;;
62796;SDS011;48839;48.546;-4.178;2023-06-10T07:24:57;4.28;;;2.15;;
62796;SDS011;48839;48.546;-4.178;2023-06-10T07:27:23;2.90;;;2.10;;
62796;SDS011;48839;48.546;-4.178;2023-06-10T07:29:50;3.08;;;2.42;;
62796;SDS011;48839;48.546;-4.178;2023-06-10T07:32:16;2.42;;;2.22;;
62796;SDS011;48839;48.546;-4.178;2023-06-10T07:34:42;2.90;;;1.50;;
62796;SDS011;48839;48.546;-4.178;2023-06-10T07:37:08;3.45;;;1.70;;
62796;SDS011;48839;48.546;-4.178;2023-06-10T07:39:34;2.58;;;1.40;;
62796;SDS011;48839;48.546;-4.178;2023-06-10T07:42:00;1.77;;;1.67;;
62796;SDS011;48839;48.546;-4.178;2023-06-10T07:44:26;2.60;;;1.48;;
62796;SDS011;48839;48.546;-4.178;2023-06-10T07:46:52;3.83;;;1.35;;
62796;SDS011;48839;48.546;-4.178;2023-06-10T07:49:18;1.35;;;1.25;;
62796;SDS011;48839;48.546;-4.178;2023-06-10T07:51:44;1.48;;;0.98;;
62796;SDS011;48839;48.546;-4.178;2023-06-10T07:54:10;3.50;;;1.13;;
62796;SDS011;48839;48.546;-4.178;2023-06-10T07:56:39;2.25;;;1.02;;
62796;SDS011;48839;48.546;-4.178;2023-06-10T07:59:05;1.70;;;1.15;;
62796;SDS011;48839;48.546;-4.178;2023-06-10T08:01:31;2.40;;;1.30;;
62796;SDS011;48839;48.546;-4.178;2023-06-10T08:03:58;3.00;;;1.48;;
62796;SDS011;48839;48.546;-4.178;2023-06-10T08:06:24;4.38;;;1.63;;
62796;SDS011;48839;48.546;-4.178;2023-06-10T08:08:50;1.75;;;1.38;;
62796;SDS011;48839;48.546;-4.178;2023-06-10T08:11:16;2.38;;;1.58;;
62796;SDS011;48839;48.546;-4.178;2023-06-10T08:13:42;1.92;;;1.13;;
62796;SDS011;48839;48.546;-4.178;2023-06-10T08:16:08;1.95;;;1.13;;
62796;SDS011;48839;48.546;-4.178;2023-06-10T08:18:35;2.50;;;1.17;;
62796;SDS011;48839;48.546;-4.178;2023-06-10T08:21:00;3.90;;;1.25;;
62796;SDS011;48839;48.546;-4.178;2023-06-10T08:23:26;3.03;;;1.35;;
62796;SDS011;48839;48.546;-4.178;2023-06-10T08:25:52;3.08;;;1.23;;
62796;SDS011;48839;48.546;-4.178;2023-06-10T08:28:18;1.42;;;0.90;;
62796;SDS011;48839;48.546;-4.178;2023-06-10T08:30:44;2.17;;;1.40;;
62796;SDS011;48839;48.546;-4.178;2023-06-10T08:33:10;1.98;;;1.30;;
62796;SDS011;48839;48.546;-4.178;2023-06-10T08:35:36;1.60;;;1.10;;
62796;SDS011;48839;48.546;-4.178;2023-06-10T08:38:02;2.65;;;0.90;;
62796;SDS011;48839;48.546;-4.178;2023-06-10T08:40:28;2.70;;;1.00;;
62796;SDS011;48839;48.546;-4.178;2023-06-10T08:45:21;2.30;;;0.98;;
62796;SDS011;48839;48.546;-4.178;2023-06-10T08:47:49;0.85;;;0.82;;
62796;SDS011;48839;48.546;-4.178;2023-06-10T08:50:18;1.58;;;1.00;;
62796;SDS011;48839;48.546;-4.178;2023-06-10T08:52:44;1.60;;;0.68;;
62796;SDS011;48839;48.546;-4.178;2023-06-10T08:55:19;3.17;;;1.25;;
62796;SDS011;48839;48.546;-4.178;2023-06-10T08:57:50;2.58;;;1.10;;
62796;SDS011;48839;48.546;-4.178;2023-06-10T09:00:17;1.27;;;1.17;;
62796;SDS011;48839;48.546;-4.178;2023-06-10T09:02:44;0.82;;;0.77;;
62796;SDS011;48839;48.546;-4.178;2023-06-10T09:05:10;2.80;;;1.08;;
62796;SDS011;48839;48.546;-4.178;2023-06-10T09:07:36;2.03;;;0.80;;
62796;SDS011;48839;48.546;-4.178;2023-06-10T09:10:02;1.83;;;1.23;;
62796;SDS011;48839;48.546;-4.178;2023-06-10T09:12:31;3.30;;;1.17;;
62796;SDS011;48839;48.546;-4.178;2023-06-10T09:14:57;1.60;;;1.13;;
62796;SDS011;48839;48.546;-4.178;2023-06-10T09:17:23;2.92;;;1.15;;
62796;SDS011;48839;48.546;-4.178;2023-06-10T09:19:49;1.13;;;1.02;;
62796;SDS011;48839;48.546;-4.178;2023-06-10T09:22:16;2.63;;;1.08;;
62796;SDS011;48839;48.546;-4.178;2023-06-10T09:24:42;1.98;;;1.27;;
62796;SDS011;48839;48.546;-4.178;2023-06-10T09:27:08;1.70;;;1.00;;
62796;SDS011;48839;48.546;-4.178;2023-06-10T09:29:48;3.03;;;1.00;;
62796;SDS011;48839;48.546;-4.178;2023-06-10T09:32:19;1.50;;;0.88;;
62796;SDS011;48839;48.546;-4.178;2023-06-10T09:34:46;1.88;;;0.85;;
62796;SDS011;48839;48.546;-4.178;2023-06-10T09:37:12;3.25;;;1.20;;
62796;SDS011;48839;48.546;-4.178;2023-06-10T09:39:41;1.95;;;1.20;;
62796;SDS011;48839;48.546;-4.178;2023-06-10T09:42:17;1.33;;;0.90;;
62796;SDS011;48839;48.546;-4.178;2023-06-10T09:44:48;0.98;;;0.80;;
62796;SDS011;48839;48.546;-4.178;2023-06-10T09:47:19;5.88;;;1.02;;
62796;SDS011;48839;48.546;-4.178;2023-06-10T09:49:45;1.13;;;0.80;;
62796;SDS011;48839;48.546;-4.178;2023-06-10T09:52:11;2.15;;;0.80;;
62796;SDS011;48839;48.546;-4.178;2023-06-10T09:54:37;3.25;;;1.00;;
62796;SDS011;48839;48.546;-4.178;2023-06-10T09:57:07;2.33;;;0.80;;
62796;SDS011;48839;48.546;-4.178;2023-06-10T09:59:34;2.10;;;0.85;;
62796;SDS011;48839;48.546;-4.178;2023-06-10T10:02:03;3.35;;;1.02;;
62796;SDS011;48839;48.546;-4.178;2023-06-10T10:04:29;1.10;;;0.80;;
62796;SDS011;48839;48.546;-4.178;2023-06-10T10:06:55;1.85;;;0.52;;
62796;SDS011;48839;48.546;-4.178;2023-06-10T10:09:21;2.55;;;0.90;;
62796;SDS011;48839;48.546;-4.178;2023-06-10T10:11:47;2.08;;;1.10;;
62796;SDS011;48839;48.546;-4.178;2023-06-10T10:14:14;1.48;;;1.00;;
62796;SDS011;48839;48.546;-4.178;2023-06-10T10:16:41;2.72;;;1.00;;
62796;SDS011;48839;48.546;-4.178;2023-06-10T10:19:10;0.98;;;0.60;;
62796;SDS011;48839;48.546;-4.178;2023-06-10T10:21:38;1.23;;;0.80;;
62796;SDS011;48839;48.546;-4.178;2023-06-10T10:24:07;1.85;;;0.80;;
62796;SDS011;48839;48.546;-4.178;2023-06-10T10:26:35;2.05;;;1.45;;
62796;SDS011;48839;48.546;-4.178;2023-06-10T10:31:34;5.53;;;1.15;;
62796;SDS011;48839;48.546;-4.178;2023-06-10T10:34:02;0.90;;;0.90;;
62796;SDS011;48839;48.546;-4.178;2023-06-10T10:36:30;3.95;;;1.10;;
62796;SDS011;48839;48.546;-4.178;2023-06-10T10:38:57;1.83;;;1.05;;
62796;SDS011;48839;48.546;-4.178;2023-06-10T10:41:24;3.55;;;0.95;;
62796;SDS011;48839;48.546;-4.178;2023-06-10T10:43:51;1.73;;;1.20;;
62796;SDS011;48839;48.546;-4.178;2023-06-10T10:46:18;2.88;;;1.10;;
62796;SDS011;48839;48.546;-4.178;2023-06-10T10:48:44;2.90;;;1.40;;
62796;SDS011;48839;48.546;-4.178;2023-06-10T10:51:10;2.33;;;1.20;;
62796;SDS011;48839;48.546;-4.178;2023-06-10T10:53:37;1.02;;;0.80;;
62796;SDS011;48839;48.546;-4.178;2023-06-10T10:56:13;1.60;;;1.00;;
62796;SDS011;48839;48.546;-4.178;2023-06-10T10:58:40;1.10;;;1.00;;
62796;SDS011;48839;48.546;-4.178;2023-06-10T11:01:12;2.13;;;1.30;;
62796;SDS011;48839;48.546;-4.178;2023-06-10T11:06:05;1.02;;;0.93;;
62796;SDS011;48839;48.546;-4.178;2023-06-10T11:16:29;2.00;;;0.90;;
62796;SDS011;48839;48.546;-4.178;2023-06-10T11:18:56;3.92;;;1.00;;
62796;SDS011;48839;48.546;-4.178;2023-06-10T11:21:25;1.05;;;0.98;;
62796;SDS011;48839;48.546;-4.178;2023-06-10T11:23:51;1.55;;;0.90;;
62796;SDS011;48839;48.546;-4.178;2023-06-10T11:33:50;1.77;;;1.02;;
62796;SDS011;48839;48.546;-4.178;2023-06-10T11:36:17;1.23;;;0.95;;
62796;SDS011;48839;48.546;-4.178;2023-06-10T11:38:43;1.55;;;0.85;;
62796;SDS011;48839;48.546;-4.178;2023-06-10T11:41:10;5.40;;;0.80;;
62796;SDS011;48839;48.546;-4.178;2023-06-10T11:43:38;2.03;;;0.85;;
62796;SDS011;48839;48.546;-4.178;2023-06-10T11:46:06;1.63;;;1.00;;
62796;SDS011;48839;48.546;-4.178;2023-06-10T11:48:33;2.75;;;1.23;;
62796;SDS011;48839;48.546;-4.178;2023-06-10T11:50:59;2.53;;;1.08;;
62796;SDS011;48839;48.546;-4.178;2023-06-10T11:53:25;2.17;;;0.82;;
62796;SDS011;48839;48.546;-4.178;2023-06-10T11:55:51;1.90;;;0.95;;
62796;SDS011;48839;48.546;-4.178;2023-06-10T11:58:21;2.97;;;1.02;;
62796;SDS011;48839;48.546;-4.178;2023-06-10T12:00:51;2.55;;;0.98;;
62796;SDS011;48839;48.546;-4.178;2023-06-10T12:03:23;1.77;;;1.08;;
62796;SDS011;48839;48.546;-4.178;2023-06-10T12:06:04;3.17;;;1.02;;
62796;SDS011;48839;48.546;-4.178;2023-06-10T12:08:30;2.75;;;1.10;;
62796;SDS011;48839;48.546;-4.178;2023-06-10T12:10:56;3.35;;;1.17;;
62796;SDS011;48839;48.546;-4.178;2023-06-10T12:13:23;1.90;;;1.02;;
62796;SDS011;48839;48.546;-4.178;2023-06-10T12:15:49;3.53;;;1.20;;
62796;SDS011;48839;48.546;-4.178;2023-06-10T12:18:19;3.63;;;1.20;;
62796;SDS011;48839;48.546;-4.178;2023-06-10T12:20:45;3.20;;;1.17;;
62796;SDS011;48839;48.546;-4.178;2023-06-10T12:23:12;2.30;;;1.20;;
62796;SDS011;48839;48.546;-4.178;2023-06-10T12:25:38;2.83;;;1.25;;
62796;SDS011;48839;48.546;-4.178;2023-06-10T12:28:05;3.03;;;1.13;;
62796;SDS011;48839;48.546;-4.178;2023-06-10T12:30:31;1.65;;;0.95;;
62796;SDS011;48839;48.546;-4.178;2023-06-10T12:32:58;3.50;;;1.20;;
62796;SDS011;48839;48.546;-4.178;2023-06-10T12:35:25;1.98;;;1.00;;
62796;SDS011;48839;48.546;-4.178;2023-06-10T12:37:55;1.50;;;0.90;;
62796;SDS011;48839;48.546;-4.178;2023-06-10T12:40:25;1.30;;;0.75;;
62796;SDS011;48839;48.546;-4.178;2023-06-10T12:42:53;2.38;;;1.20;;
62796;SDS011;48839;48.546;-4.178;2023-06-10T12:45:29;1.60;;;0.80;;
62796;SDS011;48839;48.546;-4.178;2023-06-10T12:48:06;2.75;;;0.93;;
62796;SDS011;48839;48.546;-4.178;2023-06-10T12:50:34;2.83;;;1.00;;
62796;SDS011;48839;48.546;-4.178;2023-06-10T12:53:00;1.90;;;1.05;;
62796;SDS011;48839;48.546;-4.178;2023-06-10T12:55:26;0.90;;;0.73;;
62796;SDS011;48839;48.546;-4.178;2023-06-10T12:57:53;2.55;;;0.90;;
62796;SDS011;48839;48.546;-4.178;2023-06-10T13:00:21;2.55;;;0.88;;
62796;SDS011;48839;48.546;-4.178;2023-06-10T13:02:48;1.25;;;0.63;;
62796;SDS011;48839;48.546;-4.178;2023-06-10T13:05:15;2.47;;;0.80;;
62796;SDS011;48839;48.546;-4.178;2023-06-10T13:07:41;0.95;;;0.65;;
62796;SDS011;48839;48.546;-4.178;2023-06-10T13:10:07;1.73;;;0.85;;
62796;SDS011;48839;48.546;-4.178;2023-06-10T13:12:33;2.20;;;0.80;;
62796;SDS011;48839;48.546;-4.178;2023-06-10T13:14:59;3.13;;;1.20;;
62796;SDS011;48839;48.546;-4.178;2023-06-10T13:17:27;3.15;;;0.77;;
62796;SDS011;48839;48.546;-4.178;2023-06-10T13:19:53;0.80;;;0.80;;
62796;SDS011;48839;48.546;-4.178;2023-06-10T13:22:19;2.92;;;0.73;;
62796;SDS011;48839;48.546;-4.178;2023-06-10T13:24:46;1.45;;;0.70;;
62796;SDS011;48839;48.546;-4.178;2023-06-10T13:27:12;1.52;;;0.90;;
62796;SDS011;48839;48.546;-4.178;2023-06-10T13:29:41;4.82;;;0.80;;
62796;SDS011;48839;48.546;-4.178;2023-06-10T13:32:07;1.00;;;0.70;;
62796;SDS011;48839;48.546;-4.178;2023-06-10T13:34:33;1.90;;;0.80;;
62796;SDS011;48839;48.546;-4.178;2023-06-10T13:36:59;1.77;;;1.08;;
62796;SDS011;48839;48.546;-4.178;2023-06-10T13:39:25;1.45;;;0.95;;
62796;SDS011;48839;48.546;-4.178;2023-06-10T13:41:52;2.42;;;0.73;;
62796;SDS011;48839;48.546;-4.178;2023-06-10T13:44:18;1.08;;;0.70;;
62796;SDS011;48839;48.546;-4.178;2023-06-10T13:46:44;1.95;;;0.60;;
62796;SDS011;48839;48.546;-4.178;2023-06-10T13:49:10;1.50;;;0.70;;
62796;SDS011;48839;48.546;-4.178;2023-06-10T13:51:36;1.67;;;0.40;;
62796;SDS011;48839;48.546;-4.178;2023-06-10T13:54:02;1.20;;;0.60;;
62796;SDS011;48839;48.546;-4.178;2023-06-10T13:56:28;2.10;;;0.90;;
62796;SDS011;48839;48.546;-4.178;2023-06-10T13:58:55;1.38;;;0.55;;
62796;SDS011;48839;48.546;-4.178;2023-06-10T14:01:21;4.97;;;0.90;;
62796;SDS011;48839;48.546;-4.178;2023-06-10T14:03:47;0.90;;;0.60;;
62796;SDS011;48839;48.546;-4.178;2023-06-10T14:06:13;3.42;;;0.73;;
62796;SDS011;48839;48.546;-4.178;2023-06-10T14:08:43;2.53;;;0.77;;
62796;SDS011;48839;48.546;-4.178;2023-06-10T14:11:09;2.08;;;0.80;;
62796;SDS011;48839;48.546;-4.178;2023-06-10T14:13:35;1.65;;;1.10;;
62796;SDS011;48839;48.546;-4.178;2023-06-10T14:16:03;2.55;;;0.85;;
62796;SDS011;48839;48.546;-4.178;2023-06-10T14:18:29;1.15;;;0.90;;
62796;SDS011;48839;48.546;-4.178;2023-06-10T14:20:55;2.10;;;1.05;;
62796;SDS011;48839;48.546;-4.178;2023-06-10T14:23:22;1.13;;;0.70;;
62796;SDS011;48839;48.546;-4.178;2023-06-10T14:25:49;1.63;;;0.70;;
62796;SDS011;48839;48.546;-4.178;2023-06-10T14:28:15;1.90;;;0.80;;
62796;SDS011;48839;48.546;-4.178;2023-06-10T14:30:41;2.00;;;0.93;;
62796;SDS011;48839;48.546;-4.178;2023-06-10T14:33:07;3.15;;;0.93;;
62796;SDS011;48839;48.546;-4.178;2023-06-10T14:35:33;1.80;;;0.98;;
62796;SDS011;48839;48.546;-4.178;2023-06-10T14:37:59;5.60;;;1.25;;
62796;SDS011;48839;48.546;-4.178;2023-06-10T14:40:25;2.38;;;0.98;;
62796;SDS011;48839;48.546;-4.178;2023-06-10T14:42:53;1.55;;;0.80;;
62796;SDS011;48839;48.546;-4.178;2023-06-10T14:45:19;2.78;;;1.00;;
62796;SDS011;48839;48.546;-4.178;2023-06-10T14:47:45;2.78;;;0.95;;
62796;SDS011;48839;48.546;-4.178;2023-06-10T14:50:12;2.25;;;1.70;;
62796;SDS011;48839;48.546;-4.178;2023-06-10T14:52:38;4.32;;;0.80;;